KLM1828 EDDS-EHAM
Flight info
| Callsign | KLM1828 |
|---|---|
| Flight time | 1h 1m |
| Altitude | 33000 |
| Route | OKIBA4B OKIBA N851 RIMKI Z99 LOHRE DCT MASEK/N0447F320 DCT MAPOX DCT NORKU |
| Aircraft | A320/M-SDE3FGHIRWY/LB1 |
Departure
| Time | 2026-05-07 08:46 |
|---|---|
| Airport | Stuttgart Airport (EDDS) |
Arrival
| Time | 2026-05-07 09:48 |
|---|---|
| Airport | Amsterdam Airport Schiphol (EHAM) |
| Time | Latitude | Longitude | Altitude | Speed | Heading |
|---|---|---|---|---|---|
| 2026-05-07 08:14 | 48.68896 | 9.19429 | 1289 ft | 0 kts | 344° |
| 2026-05-07 08:33 | 48.68873 | 9.19438 | 1285 ft | 4 kts | 346° |
| 2026-05-07 08:33 | 48.68847 | 9.19447 | 1289 ft | 4 kts | 355° |
| 2026-05-07 08:34 | 48.68822 | 9.19444 | 1288 ft | 4 kts | 46° |
| 2026-05-07 08:34 | 48.68817 | 9.19435 | 1287 ft | 0 kts | 74° |
| 2026-05-07 08:37 | 48.68819 | 9.19445 | 1287 ft | 3 kts | 74° |
| 2026-05-07 08:37 | 48.68830 | 9.19502 | 1285 ft | 8 kts | 74° |
| 2026-05-07 08:37 | 48.68849 | 9.19601 | 1288 ft | 12 kts | 74° |
| 2026-05-07 08:38 | 48.68868 | 9.19702 | 1285 ft | 7 kts | 74° |
| 2026-05-07 08:38 | 48.68882 | 9.19786 | 1286 ft | 10 kts | 85° |
| 2026-05-07 08:38 | 48.68857 | 9.19851 | 1285 ft | 6 kts | 133° |
| 2026-05-07 08:38 | 48.68795 | 9.19952 | 1285 ft | 19 kts | 133° |
| 2026-05-07 08:39 | 48.68763 | 9.20085 | 1285 ft | 11 kts | 79° |
| 2026-05-07 08:39 | 48.68790 | 9.20229 | 1283 ft | 16 kts | 73° |
| 2026-05-07 08:39 | 48.68823 | 9.20400 | 1279 ft | 19 kts | 74° |
| 2026-05-07 08:39 | 48.68858 | 9.20587 | 1274 ft | 19 kts | 74° |
| 2026-05-07 08:40 | 48.68898 | 9.20800 | 1271 ft | 21 kts | 73° |
| 2026-05-07 08:40 | 48.68937 | 9.21006 | 1268 ft | 20 kts | 74° |
| 2026-05-07 08:40 | 48.68978 | 9.21222 | 1265 ft | 21 kts | 74° |
| 2026-05-07 08:40 | 48.69013 | 9.21407 | 1259 ft | 16 kts | 74° |
| 2026-05-07 08:41 | 48.69050 | 9.21597 | 1260 ft | 20 kts | 74° |
| 2026-05-07 08:41 | 48.69092 | 9.21819 | 1261 ft | 25 kts | 74° |
| 2026-05-07 08:41 | 48.69139 | 9.22069 | 1249 ft | 25 kts | 74° |
| 2026-05-07 08:41 | 48.69188 | 9.22327 | 1240 ft | 26 kts | 73° |
| 2026-05-07 08:42 | 48.69238 | 9.22592 | 1228 ft | 26 kts | 74° |
| 2026-05-07 08:42 | 48.69289 | 9.22861 | 1222 ft | 27 kts | 73° |
| 2026-05-07 08:42 | 48.69340 | 9.23132 | 1217 ft | 27 kts | 74° |
| 2026-05-07 08:42 | 48.69388 | 9.23380 | 1214 ft | 23 kts | 74° |
| 2026-05-07 08:43 | 48.69430 | 9.23606 | 1210 ft | 21 kts | 74° |
| 2026-05-07 08:43 | 48.69456 | 9.23745 | 1206 ft | 20 kts | 74° |
| 2026-05-07 08:43 | 48.69495 | 9.23942 | 1200 ft | 19 kts | 75° |
| 2026-05-07 08:43 | 48.69530 | 9.24133 | 1193 ft | 18 kts | 74° |
| 2026-05-07 08:44 | 48.69541 | 9.24290 | 1188 ft | 11 kts | 123° |
| 2026-05-07 08:44 | 48.69486 | 9.24327 | 1188 ft | 8 kts | 163° |
| 2026-05-07 08:44 | 48.69414 | 9.24355 | 1187 ft | 9 kts | 166° |
| 2026-05-07 08:44 | 48.69395 | 9.24341 | 1188 ft | 1 kts | 235° |
| 2026-05-07 08:45 | 48.69391 | 9.24322 | 1189 ft | 2 kts | 253° |
| 2026-05-07 08:45 | 48.69391 | 9.24320 | 1189 ft | 0 kts | 253° |
| 2026-05-07 08:45 | 48.69390 | 9.24316 | 1189 ft | 8 kts | 253° |
| 2026-05-07 08:45 | 48.69302 | 9.23856 | 1202 ft | 79 kts | 254° |
| 2026-05-07 08:46 | 48.69096 | 9.22775 | 1227 ft | 133 kts | 254° |
| 2026-05-07 08:46 | 48.68802 | 9.21246 | 1437 ft | 161 kts | 252° |
| 2026-05-07 08:46 | 48.68465 | 9.19584 | 2140 ft | 165 kts | 255° |
| 2026-05-07 08:46 | 48.68142 | 9.17898 | 2787 ft | 172 kts | 256° |
| 2026-05-07 08:47 | 48.67792 | 9.16050 | 3117 ft | 194 kts | 255° |
| 2026-05-07 08:47 | 48.67393 | 9.13974 | 3448 ft | 218 kts | 255° |
| 2026-05-07 08:47 | 48.67000 | 9.11715 | 4075 ft | 229 kts | 265° |
| 2026-05-07 08:47 | 48.67324 | 9.09381 | 4910 ft | 233 kts | 298° |
| 2026-05-07 08:48 | 48.68274 | 9.07365 | 5782 ft | 238 kts | 313° |
| 2026-05-07 08:48 | 48.69713 | 9.06069 | 6508 ft | 253 kts | 340° |
| 2026-05-07 08:48 | 48.71463 | 9.05337 | 7090 ft | 267 kts | 341° |
| 2026-05-07 08:48 | 48.73263 | 9.04529 | 7897 ft | 272 kts | 342° |
| 2026-05-07 08:49 | 48.75160 | 9.04230 | 8724 ft | 280 kts | 3° |
| 2026-05-07 08:49 | 48.77064 | 9.05006 | 9576 ft | 289 kts | 25° |
| 2026-05-07 08:49 | 48.78680 | 9.06847 | 10364 ft | 297 kts | 47° |
| 2026-05-07 08:49 | 48.79970 | 9.09432 | 10737 ft | 319 kts | 53° |
| 2026-05-07 08:50 | 48.81458 | 9.12059 | 10964 ft | 339 kts | 37° |
| 2026-05-07 08:50 | 48.83565 | 9.13750 | 11389 ft | 348 kts | 14° |
| 2026-05-07 08:50 | 48.85938 | 9.14558 | 12085 ft | 352 kts | 10° |
| 2026-05-07 08:50 | 48.88352 | 9.15324 | 12826 ft | 356 kts | 9° |
| 2026-05-07 08:51 | 48.90791 | 9.16091 | 13627 ft | 360 kts | 10° |
| 2026-05-07 08:51 | 48.93259 | 9.16872 | 14366 ft | 364 kts | 10° |
| 2026-05-07 08:51 | 48.95744 | 9.17666 | 15153 ft | 366 kts | 10° |
| 2026-05-07 08:51 | 48.98247 | 9.18471 | 15983 ft | 369 kts | 11° |
| 2026-05-07 08:52 | 49.00772 | 9.19287 | 16774 ft | 373 kts | 10° |
| 2026-05-07 08:52 | 49.03325 | 9.20113 | 17485 ft | 376 kts | 10° |
| 2026-05-07 08:52 | 49.05897 | 9.20946 | 18140 ft | 379 kts | 10° |
| 2026-05-07 08:52 | 49.08486 | 9.21782 | 18709 ft | 382 kts | 10° |
| 2026-05-07 08:53 | 49.11092 | 9.22624 | 19269 ft | 384 kts | 10° |
| 2026-05-07 08:53 | 49.13721 | 9.23475 | 19827 ft | 387 kts | 10° |
| 2026-05-07 08:53 | 49.16371 | 9.24330 | 20393 ft | 390 kts | 10° |
| 2026-05-07 08:53 | 49.19037 | 9.25190 | 20947 ft | 393 kts | 10° |
| 2026-05-07 08:54 | 49.21719 | 9.26059 | 21493 ft | 396 kts | 11° |
| 2026-05-07 08:54 | 49.24423 | 9.26938 | 22015 ft | 399 kts | 11° |
| 2026-05-07 08:54 | 49.27146 | 9.27822 | 22540 ft | 402 kts | 10° |
| 2026-05-07 08:54 | 49.29855 | 9.28707 | 23083 ft | 405 kts | 11° |
| 2026-05-07 08:55 | 49.32614 | 9.29611 | 23570 ft | 407 kts | 11° |
| 2026-05-07 08:55 | 49.35405 | 9.30483 | 23970 ft | 409 kts | 7° |
| 2026-05-07 08:55 | 49.38243 | 9.30951 | 24371 ft | 411 kts | 4° |
| 2026-05-07 08:55 | 49.41105 | 9.31367 | 24765 ft | 413 kts | 4° |
| 2026-05-07 08:56 | 49.43967 | 9.31787 | 25152 ft | 415 kts | 4° |
| 2026-05-07 08:56 | 49.46844 | 9.32213 | 25541 ft | 416 kts | 4° |
| 2026-05-07 08:56 | 49.49741 | 9.32642 | 25918 ft | 418 kts | 4° |
| 2026-05-07 08:56 | 49.52641 | 9.33072 | 26291 ft | 420 kts | 4° |
| 2026-05-07 08:57 | 49.55562 | 9.33505 | 26652 ft | 422 kts | 4° |
| 2026-05-07 08:57 | 49.58495 | 9.33938 | 27011 ft | 424 kts | 4° |
| 2026-05-07 08:57 | 49.61438 | 9.34375 | 27362 ft | 426 kts | 4° |
| 2026-05-07 08:57 | 49.64398 | 9.34815 | 27703 ft | 428 kts | 4° |
| 2026-05-07 08:58 | 49.67373 | 9.35257 | 28028 ft | 430 kts | 5° |
| 2026-05-07 08:58 | 49.70351 | 9.35699 | 28358 ft | 432 kts | 5° |
| 2026-05-07 08:58 | 49.73351 | 9.36144 | 28650 ft | 433 kts | 5° |
| 2026-05-07 08:58 | 49.76335 | 9.36912 | 28934 ft | 436 kts | 13° |
| 2026-05-07 08:59 | 49.79283 | 9.38055 | 29216 ft | 438 kts | 13° |
| 2026-05-07 08:59 | 49.82247 | 9.39202 | 29485 ft | 440 kts | 13° |
| 2026-05-07 08:59 | 49.85226 | 9.40353 | 29748 ft | 441 kts | 13° |
| 2026-05-07 08:59 | 49.88210 | 9.41502 | 30036 ft | 442 kts | 13° |
| 2026-05-07 09:00 | 49.91194 | 9.42649 | 30322 ft | 442 kts | 13° |
| 2026-05-07 09:00 | 49.94151 | 9.43787 | 30573 ft | 443 kts | 13° |
| 2026-05-07 09:00 | 49.97143 | 9.44936 | 30804 ft | 444 kts | 13° |
| 2026-05-07 09:00 | 50.00146 | 9.46090 | 31044 ft | 445 kts | 13° |
| 2026-05-07 09:01 | 50.03155 | 9.47253 | 31286 ft | 446 kts | 13° |
| 2026-05-07 09:01 | 50.06175 | 9.48393 | 31526 ft | 447 kts | 10° |
| 2026-05-07 09:01 | 50.09250 | 9.49062 | 31767 ft | 447 kts | 5° |
| 2026-05-07 09:01 | 50.12350 | 9.49578 | 32008 ft | 448 kts | 5° |
| 2026-05-07 09:02 | 50.15453 | 9.50098 | 32254 ft | 449 kts | 5° |
| 2026-05-07 09:02 | 50.18568 | 9.50619 | 32497 ft | 451 kts | 5° |
| 2026-05-07 09:02 | 50.21691 | 9.51146 | 32738 ft | 452 kts | 5° |
| 2026-05-07 09:02 | 50.24827 | 9.51677 | 32934 ft | 454 kts | 5° |
| 2026-05-07 09:03 | 50.31100 | 9.52728 | 32984 ft | 453 kts | 5° |
| 2026-05-07 09:03 | 50.37375 | 9.53774 | 32982 ft | 453 kts | 5° |
| 2026-05-07 09:04 | 50.43652 | 9.54836 | 32979 ft | 453 kts | 5° |
| 2026-05-07 09:04 | 50.49925 | 9.55909 | 32982 ft | 454 kts | 5° |
| 2026-05-07 09:05 | 50.56199 | 9.56974 | 32974 ft | 454 kts | 5° |
| 2026-05-07 09:05 | 50.62478 | 9.58044 | 32971 ft | 454 kts | 5° |
| 2026-05-07 09:06 | 50.68747 | 9.57990 | 32971 ft | 451 kts | 348° |
| 2026-05-07 09:06 | 50.71753 | 9.56640 | 32969 ft | 449 kts | 337° |
| 2026-05-07 09:06 | 50.74552 | 9.54465 | 32965 ft | 448 kts | 327° |
| 2026-05-07 09:07 | 50.77044 | 9.51523 | 32964 ft | 446 kts | 316° |
| 2026-05-07 09:07 | 50.79148 | 9.47942 | 32963 ft | 445 kts | 308° |
| 2026-05-07 09:07 | 50.83080 | 9.40369 | 32961 ft | 445 kts | 308° |
| 2026-05-07 09:08 | 50.87008 | 9.32798 | 32962 ft | 445 kts | 309° |
| 2026-05-07 09:08 | 50.90934 | 9.25209 | 32967 ft | 445 kts | 309° |
| 2026-05-07 09:09 | 50.94853 | 9.17606 | 32967 ft | 445 kts | 308° |
| 2026-05-07 09:09 | 50.98745 | 9.10030 | 32970 ft | 445 kts | 308° |
| 2026-05-07 09:10 | 51.02658 | 9.02402 | 32973 ft | 445 kts | 308° |
| 2026-05-07 09:10 | 51.06560 | 8.94767 | 32977 ft | 445 kts | 308° |
| 2026-05-07 09:11 | 51.10449 | 8.87122 | 32981 ft | 445 kts | 308° |
| 2026-05-07 09:11 | 51.14449 | 8.79599 | 32991 ft | 445 kts | 314° |
| 2026-05-07 09:12 | 51.18770 | 8.72542 | 32994 ft | 445 kts | 314° |
| 2026-05-07 09:12 | 51.23080 | 8.65446 | 33006 ft | 445 kts | 313° |
| 2026-05-07 09:13 | 51.27386 | 8.58335 | 33010 ft | 445 kts | 314° |
| 2026-05-07 09:13 | 51.31689 | 8.51220 | 33018 ft | 445 kts | 314° |
| 2026-05-07 09:14 | 51.35989 | 8.44089 | 33021 ft | 445 kts | 313° |
| 2026-05-07 09:14 | 51.40267 | 8.36950 | 33015 ft | 444 kts | 313° |
| 2026-05-07 09:15 | 51.44548 | 8.29803 | 33013 ft | 444 kts | 313° |
| 2026-05-07 09:15 | 51.48832 | 8.22653 | 33012 ft | 444 kts | 313° |
| 2026-05-07 09:16 | 51.53111 | 8.15494 | 33015 ft | 445 kts | 313° |
| 2026-05-07 09:16 | 51.57383 | 8.08302 | 33017 ft | 445 kts | 313° |
| 2026-05-07 09:17 | 51.61643 | 8.01082 | 33023 ft | 444 kts | 313° |
| 2026-05-07 09:17 | 51.65902 | 7.93872 | 33023 ft | 444 kts | 313° |
| 2026-05-07 09:18 | 51.70151 | 7.86650 | 33021 ft | 444 kts | 313° |
| 2026-05-07 09:18 | 51.74395 | 7.79414 | 33024 ft | 444 kts | 313° |
| 2026-05-07 09:19 | 51.78643 | 7.72169 | 33024 ft | 444 kts | 313° |
| 2026-05-07 09:19 | 51.82880 | 7.64917 | 33017 ft | 444 kts | 313° |
| 2026-05-07 09:20 | 51.84993 | 7.61286 | 32755 ft | 444 kts | 313° |
| 2026-05-07 09:20 | 51.87087 | 7.57685 | 32491 ft | 443 kts | 313° |
| 2026-05-07 09:20 | 51.89199 | 7.54051 | 32229 ft | 443 kts | 313° |
| 2026-05-07 09:20 | 51.91312 | 7.50408 | 31966 ft | 444 kts | 313° |
| 2026-05-07 09:21 | 51.93429 | 7.46751 | 31705 ft | 445 kts | 313° |
| 2026-05-07 09:21 | 51.95549 | 7.43088 | 31443 ft | 445 kts | 313° |
| 2026-05-07 09:21 | 51.97663 | 7.39427 | 31190 ft | 446 kts | 313° |
| 2026-05-07 09:21 | 51.99789 | 7.35743 | 30948 ft | 446 kts | 313° |
| 2026-05-07 09:22 | 52.01908 | 7.32066 | 30688 ft | 447 kts | 313° |
| 2026-05-07 09:22 | 52.04030 | 7.28373 | 30442 ft | 447 kts | 313° |
| 2026-05-07 09:22 | 52.06157 | 7.24665 | 30191 ft | 447 kts | 313° |
| 2026-05-07 09:22 | 52.08283 | 7.20954 | 29912 ft | 447 kts | 312° |
| 2026-05-07 09:23 | 52.10399 | 7.17254 | 29623 ft | 447 kts | 312° |
| 2026-05-07 09:23 | 52.12517 | 7.13545 | 29328 ft | 447 kts | 312° |
| 2026-05-07 09:23 | 52.14632 | 7.09837 | 29052 ft | 447 kts | 312° |
| 2026-05-07 09:23 | 52.16743 | 7.06128 | 28766 ft | 446 kts | 312° |
| 2026-05-07 09:24 | 52.18848 | 7.02423 | 28491 ft | 444 kts | 312° |
| 2026-05-07 09:24 | 52.20944 | 6.98732 | 28200 ft | 442 kts | 312° |
| 2026-05-07 09:24 | 52.22988 | 6.95031 | 27544 ft | 437 kts | 310° |
| 2026-05-07 09:24 | 52.24939 | 6.91260 | 26925 ft | 434 kts | 309° |
| 2026-05-07 09:25 | 52.26823 | 6.87444 | 26278 ft | 430 kts | 307° |
| 2026-05-07 09:25 | 52.28391 | 6.83289 | 25173 ft | 433 kts | 292° |
| 2026-05-07 09:25 | 52.29360 | 6.78603 | 24113 ft | 438 kts | 287° |
| 2026-05-07 09:25 | 52.30229 | 6.73930 | 23513 ft | 431 kts | 286° |
| 2026-05-07 09:26 | 52.31079 | 6.69288 | 22896 ft | 423 kts | 286° |
| 2026-05-07 09:26 | 52.31910 | 6.64714 | 22326 ft | 416 kts | 286° |
| 2026-05-07 09:26 | 52.32724 | 6.60217 | 21762 ft | 409 kts | 286° |
| 2026-05-07 09:26 | 52.33531 | 6.55777 | 21209 ft | 404 kts | 286° |
| 2026-05-07 09:27 | 52.34327 | 6.51399 | 20672 ft | 399 kts | 286° |
| 2026-05-07 09:27 | 52.35114 | 6.47076 | 20137 ft | 395 kts | 286° |
| 2026-05-07 09:27 | 52.36417 | 6.39916 | 19270 ft | 389 kts | 286° |
| 2026-05-07 09:28 | 52.37186 | 6.35686 | 18760 ft | 386 kts | 286° |
| 2026-05-07 09:28 | 52.37947 | 6.31487 | 18249 ft | 384 kts | 286° |
| 2026-05-07 09:28 | 52.38692 | 6.27366 | 17677 ft | 381 kts | 286° |
| 2026-05-07 09:28 | 52.39447 | 6.23168 | 17111 ft | 378 kts | 286° |
| 2026-05-07 09:29 | 52.40185 | 6.19046 | 16556 ft | 375 kts | 286° |
| 2026-05-07 09:29 | 52.40915 | 6.14963 | 16018 ft | 373 kts | 286° |
| 2026-05-07 09:29 | 52.41641 | 6.10896 | 15536 ft | 369 kts | 286° |
| 2026-05-07 09:29 | 52.42355 | 6.06880 | 15085 ft | 366 kts | 286° |
| 2026-05-07 09:30 | 52.43061 | 6.02900 | 14640 ft | 362 kts | 286° |
| 2026-05-07 09:30 | 52.43761 | 5.98946 | 14201 ft | 360 kts | 286° |
| 2026-05-07 09:30 | 52.44447 | 5.95070 | 13766 ft | 358 kts | 286° |
| 2026-05-07 09:30 | 52.45137 | 5.91165 | 13275 ft | 355 kts | 286° |
| 2026-05-07 09:31 | 52.45820 | 5.87281 | 12793 ft | 353 kts | 286° |
| 2026-05-07 09:31 | 52.46498 | 5.83425 | 12315 ft | 351 kts | 286° |
| 2026-05-07 09:31 | 52.47171 | 5.79586 | 11854 ft | 350 kts | 286° |
| 2026-05-07 09:31 | 52.47839 | 5.75772 | 11392 ft | 345 kts | 286° |
| 2026-05-07 09:32 | 52.48498 | 5.72009 | 10938 ft | 341 kts | 286° |
| 2026-05-07 09:32 | 52.49144 | 5.68297 | 10495 ft | 336 kts | 285° |
| 2026-05-07 09:32 | 52.49781 | 5.64630 | 10071 ft | 332 kts | 285° |
| 2026-05-07 09:32 | 52.50389 | 5.61002 | 9627 ft | 327 kts | 282° |
| 2026-05-07 09:33 | 52.50508 | 5.57304 | 9160 ft | 323 kts | 263° |
| 2026-05-07 09:33 | 52.49923 | 5.53789 | 8738 ft | 319 kts | 245° |
| 2026-05-07 09:33 | 52.48828 | 5.50650 | 8293 ft | 315 kts | 239° |
| 2026-05-07 09:33 | 52.47702 | 5.47609 | 7971 ft | 308 kts | 239° |
| 2026-05-07 09:34 | 52.46614 | 5.44665 | 7786 ft | 296 kts | 239° |
| 2026-05-07 09:34 | 52.45566 | 5.41823 | 7630 ft | 285 kts | 239° |
| 2026-05-07 09:34 | 52.44560 | 5.39086 | 7501 ft | 278 kts | 239° |
| 2026-05-07 09:34 | 52.43566 | 5.36384 | 7371 ft | 276 kts | 239° |
| 2026-05-07 09:35 | 52.42571 | 5.33692 | 7250 ft | 276 kts | 239° |
| 2026-05-07 09:35 | 52.41578 | 5.31008 | 7122 ft | 275 kts | 239° |
| 2026-05-07 09:35 | 52.40588 | 5.28330 | 6988 ft | 275 kts | 239° |
| 2026-05-07 09:35 | 52.39597 | 5.25657 | 6865 ft | 274 kts | 239° |
| 2026-05-07 09:36 | 52.38606 | 5.22992 | 6738 ft | 274 kts | 239° |
| 2026-05-07 09:36 | 52.37629 | 5.20366 | 6613 ft | 273 kts | 239° |
| 2026-05-07 09:36 | 52.36645 | 5.17750 | 6487 ft | 273 kts | 238° |
| 2026-05-07 09:36 | 52.35628 | 5.15137 | 6354 ft | 273 kts | 238° |
| 2026-05-07 09:37 | 52.34604 | 5.12523 | 6218 ft | 272 kts | 238° |
| 2026-05-07 09:37 | 52.33581 | 5.09921 | 6090 ft | 272 kts | 238° |
| 2026-05-07 09:37 | 52.32556 | 5.07321 | 5960 ft | 272 kts | 238° |
| 2026-05-07 09:37 | 52.31530 | 5.04727 | 5857 ft | 272 kts | 238° |
| 2026-05-07 09:38 | 52.30504 | 5.02136 | 5752 ft | 272 kts | 238° |
| 2026-05-07 09:38 | 52.29477 | 4.99547 | 5555 ft | 271 kts | 238° |
| 2026-05-07 09:38 | 52.28450 | 4.96970 | 5375 ft | 270 kts | 238° |
| 2026-05-07 09:38 | 52.27421 | 4.94400 | 5184 ft | 270 kts | 238° |
| 2026-05-07 09:39 | 52.26387 | 4.91832 | 5007 ft | 270 kts | 238° |
| 2026-05-07 09:39 | 52.25355 | 4.89274 | 4826 ft | 270 kts | 238° |
| 2026-05-07 09:39 | 52.24324 | 4.86711 | 4643 ft | 270 kts | 238° |
| 2026-05-07 09:39 | 52.23298 | 4.84160 | 4454 ft | 269 kts | 238° |
| 2026-05-07 09:40 | 52.22271 | 4.81613 | 4253 ft | 268 kts | 238° |
| 2026-05-07 09:40 | 52.21250 | 4.79071 | 4042 ft | 267 kts | 238° |
| 2026-05-07 09:40 | 52.20238 | 4.76533 | 3835 ft | 265 kts | 238° |
| 2026-05-07 09:40 | 52.19228 | 4.74005 | 3631 ft | 266 kts | 237° |
| 2026-05-07 09:41 | 52.18219 | 4.71483 | 3426 ft | 265 kts | 237° |
| 2026-05-07 09:41 | 52.17215 | 4.68966 | 3211 ft | 265 kts | 238° |
| 2026-05-07 09:41 | 52.16216 | 4.66446 | 3007 ft | 264 kts | 237° |
| 2026-05-07 09:41 | 52.15241 | 4.63987 | 2790 ft | 253 kts | 238° |
| 2026-05-07 09:42 | 52.14365 | 4.61568 | 2597 ft | 243 kts | 251° |
| 2026-05-07 09:42 | 52.14204 | 4.58952 | 2424 ft | 229 kts | 284° |
| 2026-05-07 09:42 | 52.14908 | 4.56722 | 2241 ft | 219 kts | 315° |
| 2026-05-07 09:42 | 52.16014 | 4.55090 | 2110 ft | 211 kts | 322° |
| 2026-05-07 09:43 | 52.17138 | 4.53612 | 2028 ft | 203 kts | 323° |
| 2026-05-07 09:43 | 52.18338 | 4.52678 | 1999 ft | 183 kts | 355° |
| 2026-05-07 09:43 | 52.19533 | 4.52856 | 1998 ft | 164 kts | 15° |
| 2026-05-07 09:43 | 52.20533 | 4.53507 | 1994 ft | 151 kts | 30° |
| 2026-05-07 09:44 | 52.21398 | 4.54569 | 2005 ft | 158 kts | 45° |
| 2026-05-07 09:44 | 52.22064 | 4.55994 | 2015 ft | 159 kts | 57° |
| 2026-05-07 09:44 | 52.22662 | 4.57536 | 2006 ft | 160 kts | 57° |
| 2026-05-07 09:44 | 52.23254 | 4.59065 | 2026 ft | 159 kts | 57° |
| 2026-05-07 09:45 | 52.23854 | 4.60616 | 1890 ft | 163 kts | 57° |
| 2026-05-07 09:45 | 52.24466 | 4.62198 | 1688 ft | 163 kts | 57° |
| 2026-05-07 09:45 | 52.25053 | 4.63719 | 1481 ft | 154 kts | 56° |
| 2026-05-07 09:45 | 52.25592 | 4.65115 | 1279 ft | 142 kts | 55° |
| 2026-05-07 09:46 | 52.26112 | 4.66466 | 1083 ft | 136 kts | 56° |
| 2026-05-07 09:46 | 52.26619 | 4.67754 | 831 ft | 134 kts | 56° |
| 2026-05-07 09:46 | 52.27114 | 4.69031 | 704 ft | 134 kts | 57° |
| 2026-05-07 09:46 | 52.27599 | 4.70300 | 557 ft | 132 kts | 56° |
| 2026-05-07 09:47 | 52.28086 | 4.71573 | 367 ft | 132 kts | 55° |
| 2026-05-07 09:47 | 52.28568 | 4.72827 | 149 ft | 130 kts | 57° |
| 2026-05-07 09:47 | 52.29047 | 4.74076 | 17 ft | 129 kts | 57° |
| 2026-05-07 09:47 | 52.29472 | 4.75185 | -3 ft | 93 kts | 58° |
| 2026-05-07 09:48 | 52.29728 | 4.75852 | -2 ft | 48 kts | 59° |
| 2026-05-07 09:48 | 52.29892 | 4.76273 | -4 ft | 38 kts | 57° |
| 2026-05-07 09:48 | 52.30001 | 4.76506 | -2 ft | 22 kts | 40° |
| 2026-05-07 09:48 | 52.30126 | 4.76624 | -1 ft | 13 kts | 27° |
| 2026-05-07 09:49 | 52.30197 | 4.76685 | -1 ft | 12 kts | 28° |
| 2026-05-07 09:49 | 52.30278 | 4.76759 | -1 ft | 14 kts | 37° |
| 2026-05-07 09:49 | 52.30311 | 4.76819 | -1 ft | 5 kts | 55° |
| 2026-05-07 09:49 | 52.30329 | 4.76865 | -1 ft | 4 kts | 58° |
| 2026-05-07 09:50 | 52.30342 | 4.76901 | -1 ft | 3 kts | 58° |
| 2026-05-07 09:50 | 52.30352 | 4.76928 | -1 ft | 2 kts | 58° |
| 2026-05-07 09:50 | 52.30367 | 4.76968 | -1 ft | 9 kts | 58° |
| 2026-05-07 09:50 | 52.30416 | 4.77093 | -1 ft | 15 kts | 57° |
| 2026-05-07 09:51 | 52.30475 | 4.77245 | -1 ft | 17 kts | 58° |
| 2026-05-07 09:51 | 52.30543 | 4.77420 | -1 ft | 19 kts | 57° |
| 2026-05-07 09:51 | 52.30638 | 4.77574 | -1 ft | 20 kts | 18° |
| 2026-05-07 09:51 | 52.30765 | 4.77598 | -1 ft | 19 kts | 2° |
| 2026-05-07 09:52 | 52.30906 | 4.77611 | -1 ft | 20 kts | 3° |
| 2026-05-07 09:52 | 52.31006 | 4.77596 | -1 ft | 15 kts | 322° |
| 2026-05-07 09:52 | 52.31061 | 4.77444 | -1 ft | 16 kts | 293° |
| 2026-05-07 09:52 | 52.31074 | 4.77271 | -1 ft | 15 kts | 272° |
| 2026-05-07 09:53 | 52.31079 | 4.77114 | -1 ft | 13 kts | 273° |
| 2026-05-07 09:53 | 52.31085 | 4.76970 | -1 ft | 12 kts | 273° |
| 2026-05-07 09:53 | 52.31061 | 4.76849 | -1 ft | 11 kts | 227° |
| 2026-05-07 09:53 | 52.31006 | 4.76809 | -1 ft | 6 kts | 185° |
| 2026-05-07 09:54 | 52.30968 | 4.76828 | -1 ft | 5 kts | 143° |
| 2026-05-07 09:54 | 52.30944 | 4.76865 | -1 ft | 3 kts | 136° |
| 2026-05-07 09:54 | 52.30933 | 4.76882 | -1 ft | 1 kts | 137° |
| 2026-05-07 09:54 | 52.30928 | 4.76889 | -1 ft | 1 kts | 137° |
| 2026-05-07 09:55 | 52.30926 | 4.76892 | -1 ft | 0 kts | 137° |
| 2026-05-07 09:55 | 52.30925 | 4.76893 | -1 ft | 0 kts | 137° |